createdAt,value
2016-05-25T00:00:08.250Z,11.72
2016-05-25T00:00:18.297Z,11.8
2016-05-25T00:00:28.250Z,11.76
2016-05-25T00:00:38.250Z,11.8
2016-05-25T00:00:48.281Z,11.78
2016-05-25T00:00:58.269Z,11.72
2016-05-25T00:01:08.284Z,11.76
2016-05-25T00:01:18.238Z,11.76
2016-05-25T00:01:28.988Z,11.79
2016-05-25T00:01:38.331Z,11.75
2016-05-25T00:01:48.816Z,11.7
2016-05-25T00:01:58.474Z,11.76
2016-05-25T00:02:08.302Z,11.83
2016-05-25T00:02:18.161Z,11.8
2016-05-25T00:02:28.318Z,11.83
2016-05-25T00:02:38.318Z,11.86
2016-05-25T00:02:48.365Z,11.86
2016-05-25T00:02:58.164Z,11.82
2016-05-25T00:03:08.336Z,11.83
2016-05-25T00:03:18.399Z,11.86
2016-05-25T00:03:28.180Z,11.8
2016-05-25T00:03:38.352Z,11.85
2016-05-25T00:03:48.352Z,11.86
2016-05-25T00:03:58.199Z,11.88
2016-05-25T00:04:08.214Z,11.8
2016-05-25T00:04:18.527Z,11.85
2016-05-25T00:04:28.386Z,11.86
2016-05-25T00:04:38.902Z,11.79
2016-05-25T00:04:48.386Z,11.83
2016-05-25T00:04:58.389Z,11.8
2016-05-25T00:05:08.389Z,11.78
2016-05-25T00:05:18.374Z,11.86
2016-05-25T00:05:28.389Z,11.82
2016-05-25T00:05:38.405Z,11.79
2016-05-25T00:05:48.436Z,11.8
2016-05-25T00:05:58.408Z,11.82
2016-05-25T00:06:08.423Z,11.83
2016-05-25T00:06:18.267Z,11.78
2016-05-25T00:06:28.423Z,11.78
2016-05-25T00:06:38.439Z,11.76
2016-05-25T00:06:48.439Z,11.69
2016-05-25T00:06:58.441Z,11.73
2016-05-25T00:07:08.457Z,11.73
2016-05-25T00:07:18.300Z,11.78
2016-05-25T00:07:28.457Z,11.76
2016-05-25T00:07:38.472Z,11.78
2016-05-25T00:07:48.472Z,11.76
2016-05-25T00:07:58.319Z,11.76
2016-05-25T00:08:08.475Z,11.78
2016-05-25T00:08:18.335Z,11.75
2016-05-25T00:08:28.491Z,11.69
2016-05-25T00:08:38.491Z,11.73
2016-05-25T00:08:48.491Z,11.73
2016-05-25T00:08:58.510Z,11.7
2016-05-25T00:09:08.353Z,11.72
2016-05-25T00:09:18.510Z,11.73
2016-05-25T00:09:28.369Z,11.65
2016-05-25T00:09:38.525Z,11.75
2016-05-25T00:09:48.525Z,11.78
2016-05-25T00:09:58.527Z,11.76
2016-05-25T00:10:08.543Z,11.73
2016-05-25T00:10:18.543Z,11.73
2016-05-25T00:10:28.543Z,11.78
2016-05-25T00:10:38.558Z,11.75
2016-05-25T00:10:48.558Z,11.78
2016-05-25T00:10:58.561Z,11.79
2016-05-25T00:11:08.561Z,11.83
2016-05-25T00:11:18.577Z,11.78
2016-05-25T00:11:28.577Z,11.8
2016-05-25T00:11:38.593Z,11.83
2016-05-25T00:11:48.577Z,11.76
2016-05-25T00:11:58.595Z,11.73
2016-05-25T00:12:08.595Z,11.73
2016-05-25T00:12:18.595Z,11.7
2016-05-25T00:12:28.610Z,11.79
2016-05-25T00:12:38.610Z,11.73
2016-05-25T00:12:48.610Z,11.69
2016-05-25T00:12:58.629Z,11.76
2016-05-25T00:13:08.473Z,11.75
2016-05-25T00:13:18.629Z,11.72
2016-05-25T00:13:28.645Z,11.62
2016-05-25T00:13:38.645Z,11.7
2016-05-25T00:13:48.645Z,11.7
2016-05-25T00:13:58.648Z,11.7
2016-05-25T00:14:08.663Z,11.73
2016-05-25T00:14:18.507Z,11.69
2016-05-25T00:14:28.679Z,11.69
2016-05-25T00:14:38.679Z,11.65
2016-05-25T00:14:48.679Z,11.78
2016-05-25T00:14:58.525Z,11.73
2016-05-25T00:15:08.696Z,11.76
2016-05-25T00:15:18.696Z,11.72
2016-05-25T00:15:28.696Z,11.7
2016-05-25T00:15:38.696Z,11.73
2016-05-25T00:15:48.712Z,11.62
2016-05-25T00:15:58.560Z,11.65
2016-05-25T00:16:09.075Z,11.69
2016-05-25T00:16:18.872Z,11.67
2016-05-25T00:16:28.732Z,11.67
2016-05-25T00:16:39.044Z,11.7
2016-05-25T00:16:48.747Z,11.7
2016-05-25T00:16:58.749Z,11.67
2016-05-25T00:17:08.593Z,11.73
2016-05-25T00:17:18.749Z,11.72
2016-05-25T00:17:28.609Z,11.73
2016-05-25T00:17:38.765Z,11.67
2016-05-25T00:17:48.765Z,11.72
2016-05-25T00:17:58.784Z,11.72
2016-05-25T00:18:08.627Z,11.7
2016-05-25T00:18:18.784Z,11.69
2016-05-25T00:18:28.784Z,11.67
2016-05-25T00:18:38.799Z,11.72
2016-05-25T00:18:48.799Z,11.7
2016-05-25T00:18:58.801Z,11.7
2016-05-25T00:19:08.801Z,11.75
2016-05-25T00:19:18.817Z,11.7
2016-05-25T00:19:28.661Z,11.72
2016-05-25T00:19:38.817Z,11.75
2016-05-25T00:19:48.832Z,11.76
2016-05-25T00:19:58.835Z,11.69
2016-05-25T00:20:08.851Z,11.62
2016-05-25T00:20:18.835Z,11.57
2016-05-25T00:20:28.851Z,11.62
2016-05-25T00:20:38.851Z,11.55
2016-05-25T00:20:48.851Z,11.65
2016-05-25T00:20:58.854Z,11.73
2016-05-25T00:21:08.885Z,11.7
2016-05-25T00:21:18.870Z,11.62
2016-05-25T00:21:28.870Z,11.7
2016-05-25T00:21:38.885Z,11.75
2016-05-25T00:21:48.885Z,11.64
2016-05-25T00:21:58.887Z,11.7
2016-05-25T00:22:08.903Z,11.7
2016-05-25T00:22:18.903Z,11.65
2016-05-25T00:22:28.903Z,11.7
2016-05-25T00:22:38.919Z,11.72
2016-05-25T00:22:48.919Z,11.72
2016-05-25T00:22:58.922Z,11.69
2016-05-25T00:23:08.922Z,11.76
2016-05-25T00:23:18.937Z,11.73
2016-05-25T00:23:28.953Z,11.69
2016-05-25T00:23:38.937Z,11.7
2016-05-25T00:23:48.953Z,11.75
2016-05-25T00:23:58.956Z,11.69
2016-05-25T00:24:08.956Z,11.75
2016-05-25T00:24:18.800Z,11.75
2016-05-25T00:24:28.971Z,11.73
2016-05-25T00:24:38.971Z,11.72
2016-05-25T00:24:48.987Z,11.62
2016-05-25T00:24:58.990Z,11.65
2016-05-25T00:25:08.990Z,11.7
2016-05-25T00:25:18.990Z,11.65
2016-05-25T00:25:28.990Z,11.64
2016-05-25T00:25:39.006Z,11.61
2016-05-25T00:25:49.006Z,11.65
2016-05-25T00:25:59.008Z,11.65
2016-05-25T00:26:09.023Z,11.6
2016-05-25T00:26:19.023Z,11.62
2016-05-25T00:26:29.023Z,11.67
2016-05-25T00:26:39.023Z,11.65
2016-05-25T00:26:49.023Z,11.67
2016-05-25T00:26:59.042Z,11.67
2016-05-25T00:27:09.042Z,11.73
2016-05-25T00:27:18.917Z,11.65
2016-05-25T00:27:29.058Z,11.64
2016-05-25T00:27:39.073Z,11.67
2016-05-25T00:27:49.058Z,11.67
2016-05-25T00:27:59.076Z,11.67
2016-05-25T00:28:09.076Z,11.7
2016-05-25T00:28:18.936Z,11.72
2016-05-25T00:28:29.092Z,11.67
2016-05-25T00:28:39.092Z,11.7
2016-05-25T00:28:49.092Z,11.7
2016-05-25T00:28:59.110Z,11.75
2016-05-25T00:29:09.110Z,11.73
2016-05-25T00:29:19.126Z,11.69
2016-05-25T00:29:29.110Z,11.72
2016-05-25T00:29:39.126Z,11.75
2016-05-25T00:29:49.126Z,11.73
2016-05-25T00:29:58.972Z,11.72
2016-05-25T00:30:09.144Z,11.72
2016-05-25T00:30:19.144Z,11.75
2016-05-25T00:30:29.144Z,11.73
2016-05-25T00:30:39.144Z,11.7
2016-05-25T00:30:49.159Z,11.76
2016-05-25T00:30:59.006Z,11.69
2016-05-25T00:31:09.162Z,11.75
2016-05-25T00:31:19.178Z,11.72
2016-05-25T00:31:29.444Z,11.7
2016-05-25T00:31:39.194Z,11.69
2016-05-25T00:31:49.178Z,11.72
2016-05-25T00:31:59.196Z,11.73
2016-05-25T00:32:09.196Z,11.67
2016-05-25T00:32:19.055Z,11.67
2016-05-25T00:32:29.211Z,11.72
2016-05-25T00:32:39.211Z,11.73
2016-05-25T00:32:49.211Z,11.7
2016-05-25T00:32:59.230Z,11.75
2016-05-25T00:33:09.214Z,11.73
2016-05-25T00:33:19.230Z,11.72
2016-05-25T00:33:29.230Z,11.72
2016-05-25T00:33:39.230Z,11.7
2016-05-25T00:33:49.245Z,11.76
2016-05-25T00:33:59.248Z,11.73
2016-05-25T00:34:09.248Z,11.76
2016-05-25T00:34:19.264Z,11.73
2016-05-25T00:34:29.264Z,11.73
2016-05-25T00:34:39.264Z,11.78
2016-05-25T00:34:49.280Z,11.78
2016-05-25T00:34:59.297Z,11.73
2016-05-25T00:35:09.297Z,11.8
2016-05-25T00:35:19.282Z,11.83
2016-05-25T00:35:29.297Z,11.78
2016-05-25T00:35:39.141Z,11.75
2016-05-25T00:35:49.297Z,11.75
2016-05-25T00:35:59.332Z,11.76
2016-05-25T00:36:09.332Z,11.73
2016-05-25T00:36:19.316Z,11.76
2016-05-25T00:36:29.316Z,11.7
2016-05-25T00:36:39.332Z,11.78
2016-05-25T00:36:49.347Z,11.76
2016-05-25T00:36:59.334Z,11.75
2016-05-25T00:37:09.349Z,11.78
2016-05-25T00:37:19.349Z,11.78
2016-05-25T00:37:29.193Z,11.73
2016-05-25T00:37:39.365Z,11.78
2016-05-25T00:37:49.365Z,11.7
2016-05-25T00:37:59.369Z,11.78
2016-05-25T00:38:09.384Z,11.76
2016-05-25T00:38:19.384Z,11.8
2016-05-25T00:38:29.384Z,11.7
2016-05-25T00:38:39.384Z,11.73
2016-05-25T00:38:49.400Z,11.73
2016-05-25T00:38:59.403Z,11.69
2016-05-25T00:39:09.403Z,11.73
2016-05-25T00:39:19.403Z,11.75
2016-05-25T00:39:29.419Z,11.69
2016-05-25T00:39:39.419Z,11.69
2016-05-25T00:39:49.419Z,11.76
2016-05-25T00:39:59.421Z,11.72
2016-05-25T00:40:09.436Z,11.76
2016-05-25T00:40:19.436Z,11.72
2016-05-25T00:40:29.436Z,11.75
2016-05-25T00:40:39.452Z,11.76
2016-05-25T00:40:49.296Z,11.78
2016-05-25T00:40:59.455Z,11.72
2016-05-25T00:41:09.471Z,11.76
2016-05-25T00:41:19.314Z,11.73
2016-05-25T00:41:29.314Z,11.78
2016-05-25T00:41:39.471Z,11.76
2016-05-25T00:41:49.486Z,11.82
2016-05-25T00:41:59.488Z,11.8
2016-05-25T00:42:09.488Z,11.79
2016-05-25T00:42:19.488Z,11.76
2016-05-25T00:42:29.504Z,11.73
2016-05-25T00:42:39.504Z,11.8
2016-05-25T00:42:49.504Z,11.73
2016-05-25T00:42:59.522Z,11.73
2016-05-25T00:43:09.366Z,11.7
2016-05-25T00:43:19.522Z,11.72
2016-05-25T00:43:29.538Z,11.72
2016-05-25T00:43:39.538Z,11.76
2016-05-25T00:43:49.538Z,11.72
2016-05-25T00:43:59.540Z,11.73
2016-05-25T00:44:09.587Z,11.7
2016-05-25T00:44:19.571Z,11.73
2016-05-25T00:44:29.556Z,11.7
2016-05-25T00:44:39.571Z,11.75
2016-05-25T00:44:49.571Z,11.75
2016-05-25T00:44:59.590Z,11.7
2016-05-25T00:45:09.590Z,11.69
2016-05-25T00:45:19.590Z,11.76
2016-05-25T00:45:29.590Z,11.73
2016-05-25T00:45:39.606Z,11.72
2016-05-25T00:45:49.606Z,11.7
2016-05-25T00:45:59.609Z,11.72
2016-05-25T00:46:09.749Z,11.76
2016-05-25T00:46:19.624Z,11.75
2016-05-25T00:46:29.624Z,11.7
2016-05-25T00:46:40.312Z,11.73
2016-05-25T00:46:49.640Z,11.73
2016-05-25T00:46:59.643Z,11.7
2016-05-25T00:47:09.643Z,11.72
2016-05-25T00:47:19.643Z,11.75
2016-05-25T00:47:29.502Z,11.73
2016-05-25T00:47:39.658Z,11.76
2016-05-25T00:47:49.502Z,11.72
2016-05-25T00:47:59.677Z,11.72
2016-05-25T00:48:09.677Z,11.75
2016-05-25T00:48:19.677Z,11.73
2016-05-25T00:48:29.693Z,11.75
2016-05-25T00:48:39.693Z,11.73
2016-05-25T00:48:49.693Z,11.73
2016-05-25T00:49:00.148Z,11.7
2016-05-25T00:49:09.757Z,11.75
2016-05-25T00:49:19.773Z,11.69
2016-05-25T00:49:29.726Z,11.72
2016-05-25T00:49:39.585Z,11.75
2016-05-25T00:49:49.882Z,11.69
2016-05-25T00:49:59.729Z,11.67
2016-05-25T00:50:09.745Z,11.69
2016-05-25T00:50:19.588Z,11.7
2016-05-25T00:50:29.745Z,11.75
2016-05-25T00:50:39.745Z,11.7
2016-05-25T00:50:49.745Z,11.67
2016-05-25T00:50:59.762Z,11.76
2016-05-25T00:51:09.762Z,11.55
2016-05-25T00:51:19.606Z,11.61
2016-05-25T00:51:29.778Z,11.69
2016-05-25T00:51:39.778Z,11.62
2016-05-25T00:51:49.778Z,11.58
2016-05-25T00:51:59.625Z,11.65
2016-05-25T00:52:09.796Z,11.62
2016-05-25T00:52:19.796Z,11.69
2016-05-25T00:52:29.796Z,11.67
2016-05-25T00:52:39.656Z,11.62
2016-05-25T00:52:49.812Z,11.7
2016-05-25T00:52:59.815Z,11.69
2016-05-25T00:53:09.815Z,11.7
2016-05-25T00:53:19.831Z,11.75
2016-05-25T00:53:29.831Z,11.67
2016-05-25T00:53:39.831Z,11.7
2016-05-25T00:53:49.690Z,11.69
2016-05-25T00:53:59.848Z,11.72
2016-05-25T00:54:09.848Z,11.76
2016-05-25T00:54:19.848Z,11.72
2016-05-25T00:54:29.864Z,11.73
2016-05-25T00:54:39.864Z,11.69
2016-05-25T00:54:49.864Z,11.76
2016-05-25T00:54:59.727Z,11.72
2016-05-25T00:55:09.884Z,11.78
2016-05-25T00:55:19.884Z,11.75
2016-05-25T00:55:29.790Z,11.67
2016-05-25T00:55:39.899Z,11.72
2016-05-25T00:55:49.962Z,11.64
2016-05-25T00:55:59.901Z,11.7
2016-05-25T00:56:09.901Z,11.69
2016-05-25T00:56:19.917Z,11.75
2016-05-25T00:56:29.917Z,11.69
2016-05-25T00:56:39.917Z,11.69
2016-05-25T00:56:49.932Z,11.7
2016-05-25T00:56:59.934Z,11.76
2016-05-25T00:57:09.778Z,11.72
2016-05-25T00:57:19.778Z,11.76
2016-05-25T00:57:29.950Z,11.76
2016-05-25T00:57:39.950Z,11.7
2016-05-25T00:57:49.950Z,11.7
2016-05-25T00:57:59.969Z,11.69
2016-05-25T00:58:09.969Z,11.73
2016-05-25T00:58:19.969Z,11.72
2016-05-25T00:58:29.969Z,11.73
2016-05-25T00:58:39.984Z,11.72
2016-05-25T00:58:49.984Z,11.7
2016-05-25T00:59:00.003Z,11.69
2016-05-25T00:59:10.003Z,11.69
2016-05-25T00:59:20.003Z,11.75
2016-05-25T00:59:30.003Z,11.7
2016-05-25T00:59:40.019Z,11.72
2016-05-25T00:59:50.019Z,11.72
2016-05-25T01:00:00.022Z,11.72
2016-05-25T01:00:10.022Z,11.7
2016-05-25T01:00:20.037Z,11.72
2016-05-25T01:00:29.881Z,11.72
2016-05-25T01:00:40.037Z,11.7
2016-05-25T01:00:50.037Z,11.69
2016-05-25T01:01:00.055Z,11.67
2016-05-25T01:01:10.149Z,11.65
2016-05-25T01:01:20.477Z,11.72
2016-05-25T01:01:30.070Z,11.7
2016-05-25T01:01:40.070Z,11.73
2016-05-25T01:01:49.930Z,11.73
2016-05-25T01:02:00.105Z,11.67
2016-05-25T01:02:10.089Z,11.72
2016-05-25T01:02:20.089Z,11.75
2016-05-25T01:02:30.105Z,11.72
2016-05-25T01:02:40.105Z,11.73
2016-05-25T01:02:50.105Z,11.75
2016-05-25T01:03:00.108Z,11.72
2016-05-25T01:03:10.123Z,11.7
2016-05-25T01:03:20.123Z,11.73
2016-05-25T01:03:30.123Z,11.79
2016-05-25T01:03:40.139Z,11.76
2016-05-25T01:03:50.139Z,11.75
2016-05-25T01:04:00.141Z,11.69
2016-05-25T01:04:10.141Z,11.7
2016-05-25T01:04:20.157Z,11.69
2016-05-25T01:04:30.157Z,11.69
2016-05-25T01:04:40.157Z,11.75
2016-05-25T01:04:50.172Z,11.72
2016-05-25T01:05:00.175Z,11.69
2016-05-25T01:05:10.175Z,11.73
2016-05-25T01:05:20.175Z,11.72
2016-05-25T01:05:30.191Z,11.72
2016-05-25T01:05:40.191Z,11.76
2016-05-25T01:05:50.206Z,11.76
2016-05-25T01:06:00.208Z,11.75
2016-05-25T01:06:10.208Z,11.75
2016-05-25T01:06:20.224Z,11.75
2016-05-25T01:06:30.224Z,11.73
2016-05-25T01:06:40.068Z,11.65
2016-05-25T01:06:50.068Z,11.76
2016-05-25T01:07:00.227Z,11.76
2016-05-25T01:07:10.243Z,11.82
2016-05-25T01:07:20.243Z,11.73
2016-05-25T01:07:30.243Z,11.72
2016-05-25T01:07:40.243Z,11.76
2016-05-25T01:07:50.258Z,11.7
2016-05-25T01:08:00.261Z,11.72
2016-05-25T01:08:10.261Z,11.75
2016-05-25T01:08:20.277Z,11.7
2016-05-25T01:08:30.277Z,11.65
2016-05-25T01:08:40.277Z,11.75
2016-05-25T01:08:50.293Z,11.72
2016-05-25T01:09:00.280Z,11.7
2016-05-25T01:09:10.296Z,11.78
2016-05-25T01:09:20.327Z,11.7
2016-05-25T01:09:30.296Z,11.75
2016-05-25T01:09:40.311Z,11.75
2016-05-25T01:09:50.311Z,11.75
2016-05-25T01:10:00.330Z,11.69
2016-05-25T01:10:10.330Z,11.78
2016-05-25T01:10:20.345Z,11.75
2016-05-25T01:10:30.345Z,11.73
2016-05-25T01:10:40.345Z,11.7
2016-05-25T01:10:50.361Z,11.69
2016-05-25T01:11:00.363Z,11.73
2016-05-25T01:11:10.207Z,11.75
2016-05-25T01:11:20.363Z,11.7
2016-05-25T01:11:30.363Z,11.73
2016-05-25T01:11:40.363Z,11.78
2016-05-25T01:11:50.222Z,11.73
2016-05-25T01:12:00.382Z,11.75
2016-05-25T01:12:10.382Z,11.73
2016-05-25T01:12:20.397Z,11.78
2016-05-25T01:12:30.241Z,11.82
2016-05-25T01:12:40.397Z,11.79
2016-05-25T01:12:50.397Z,11.8
2016-05-25T01:13:00.415Z,11.78
2016-05-25T01:13:10.415Z,11.76
2016-05-25T01:13:20.259Z,11.76
2016-05-25T01:13:30.415Z,11.75
2016-05-25T01:13:40.431Z,11.78
2016-05-25T01:13:50.274Z,11.76
2016-05-25T01:14:00.277Z,11.78
2016-05-25T01:14:10.449Z,11.7
2016-05-25T01:14:20.449Z,11.76
2016-05-25T01:14:30.449Z,11.76
2016-05-25T01:14:40.449Z,11.73
2016-05-25T01:14:50.309Z,11.73
2016-05-25T01:15:00.468Z,11.72
2016-05-25T01:15:10.483Z,11.76
2016-05-25T01:15:20.483Z,11.82
2016-05-25T01:15:30.327Z,11.75
2016-05-25T01:15:40.499Z,11.82
2016-05-25T01:15:50.483Z,11.79
2016-05-25T01:16:00.517Z,11.78
2016-05-25T01:16:10.517Z,11.73
2016-05-25T01:16:20.673Z,11.79
2016-05-25T01:16:30.517Z,11.73
2016-05-25T01:16:40.735Z,11.78
2016-05-25T01:16:50.548Z,11.83
2016-05-25T01:17:00.770Z,11.72
2016-05-25T01:17:10.535Z,11.73
2016-05-25T01:17:20.535Z,11.78
2016-05-25T01:17:30.535Z,11.75
2016-05-25T01:17:40.551Z,11.73
2016-05-25T01:17:50.551Z,11.73
2016-05-25T01:18:00.554Z,11.76
2016-05-25T01:18:10.413Z,11.72
2016-05-25T01:18:20.570Z,11.72
2016-05-25T01:18:30.570Z,11.72
2016-05-25T01:18:40.570Z,11.72
2016-05-25T01:18:50.585Z,11.62
2016-05-25T01:19:00.588Z,11.69
2016-05-25T01:19:10.604Z,11.6
2016-05-25T01:19:20.588Z,11.64
2016-05-25T01:19:30.604Z,11.65
2016-05-25T01:19:40.619Z,11.67
2016-05-25T01:19:50.604Z,11.62
2016-05-25T01:20:00.621Z,11.55
2016-05-25T01:20:10.621Z,11.67
2016-05-25T01:20:20.621Z,11.65
2016-05-25T01:20:30.637Z,11.67
2016-05-25T01:20:40.481Z,11.65
2016-05-25T01:20:50.637Z,11.75
2016-05-25T01:21:00.640Z,11.67
2016-05-25T01:21:10.499Z,11.72
2016-05-25T01:21:20.656Z,11.64
2016-05-25T01:21:30.656Z,11.67
2016-05-25T01:21:40.703Z,11.67
2016-05-25T01:21:50.515Z,11.62
2016-05-25T01:22:00.674Z,11.7
2016-05-25T01:22:10.690Z,11.65
2016-05-25T01:22:20.690Z,11.67
2016-05-25T01:22:30.690Z,11.75
2016-05-25T01:22:40.534Z,11.72
2016-05-25T01:22:50.706Z,11.72
2016-05-25T01:23:00.708Z,11.75
2016-05-25T01:23:10.551Z,11.67
2016-05-25T01:23:20.723Z,11.75
2016-05-25T01:23:30.723Z,11.67
2016-05-25T01:23:40.723Z,11.76
2016-05-25T01:23:50.723Z,11.75
2016-05-25T01:24:00.586Z,11.67
2016-05-25T01:24:10.742Z,11.72
2016-05-25T01:24:20.742Z,11.75
2016-05-25T01:24:30.757Z,11.73
2016-05-25T01:24:40.804Z,11.75
2016-05-25T01:24:50.757Z,11.75
2016-05-25T01:25:00.760Z,11.73
2016-05-25T01:25:10.776Z,11.65
2016-05-25T01:25:20.776Z,11.69
2016-05-25T01:25:30.776Z,11.7
2016-05-25T01:25:40.792Z,11.69
2016-05-25T01:25:50.792Z,11.7
2016-05-25T01:26:00.794Z,11.69
2016-05-25T01:26:10.809Z,11.67
2016-05-25T01:26:20.809Z,11.75
2016-05-25T01:26:30.809Z,11.72
2016-05-25T01:26:40.809Z,11.75
2016-05-25T01:26:50.825Z,11.72
2016-05-25T01:27:00.829Z,11.78
2016-05-25T01:27:10.829Z,11.75
2016-05-25T01:27:20.829Z,11.75
2016-05-25T01:27:30.845Z,11.7
2016-05-25T01:27:40.845Z,11.69
2016-05-25T01:27:50.845Z,11.72
2016-05-25T01:28:00.862Z,11.7
2016-05-25T01:28:10.893Z,11.78
2016-05-25T01:28:20.862Z,11.75
2016-05-25T01:28:30.878Z,11.72
2016-05-25T01:28:40.722Z,11.72
2016-05-25T01:28:50.878Z,11.75
2016-05-25T01:29:00.896Z,11.69
2016-05-25T01:29:10.896Z,11.72
2016-05-25T01:29:20.896Z,11.67
2016-05-25T01:29:30.896Z,11.72
2016-05-25T01:29:40.912Z,11.76
2016-05-25T01:29:50.912Z,11.72
2016-05-25T01:30:00.914Z,11.69
2016-05-25T01:30:10.914Z,11.7
2016-05-25T01:30:20.930Z,11.7
2016-05-25T01:30:30.930Z,11.7
2016-05-25T01:30:40.930Z,11.72
2016-05-25T01:30:50.945Z,11.69
2016-05-25T01:31:00.948Z,11.69
2016-05-25T01:31:10.948Z,11.7
2016-05-25T01:31:20.964Z,11.65
2016-05-25T01:31:31.026Z,11.65
2016-05-25T01:31:40.808Z,11.58
2016-05-25T01:31:50.964Z,11.64
2016-05-25T01:32:01.061Z,11.69
2016-05-25T01:32:10.983Z,11.62
2016-05-25T01:32:20.998Z,11.7
2016-05-25T01:32:30.983Z,11.55
2016-05-25T01:32:40.998Z,11.65
2016-05-25T01:32:50.998Z,11.67
2016-05-25T01:33:01.000Z,11.69
2016-05-25T01:33:11.016Z,11.62
2016-05-25T01:33:21.016Z,11.72
2016-05-25T01:33:31.016Z,11.73
2016-05-25T01:33:41.016Z,11.69
2016-05-25T01:33:51.031Z,11.67
2016-05-25T01:34:01.034Z,11.69
2016-05-25T01:34:11.050Z,11.7
2016-05-25T01:34:21.050Z,11.65
2016-05-25T01:34:31.050Z,11.75
2016-05-25T01:34:41.050Z,11.76
2016-05-25T01:34:50.894Z,11.69
2016-05-25T01:35:01.069Z,11.72
2016-05-25T01:35:11.069Z,11.62
2016-05-25T01:35:20.928Z,11.57
2016-05-25T01:35:31.084Z,11.7
2016-05-25T01:35:40.928Z,11.73
2016-05-25T01:35:51.084Z,11.72
2016-05-25T01:36:01.086Z,11.69
2016-05-25T01:36:11.102Z,11.75
2016-05-25T01:36:21.102Z,11.7
2016-05-25T01:36:31.118Z,11.72
2016-05-25T01:36:41.118Z,11.7
2016-05-25T01:36:51.118Z,11.69
2016-05-25T01:37:01.121Z,11.76
2016-05-25T01:37:11.136Z,11.69
2016-05-25T01:37:21.136Z,11.76
2016-05-25T01:37:31.136Z,11.7
2016-05-25T01:37:41.152Z,11.67
2016-05-25T01:37:50.996Z,11.64
2016-05-25T01:38:01.169Z,11.75
2016-05-25T01:38:11.154Z,11.65
2016-05-25T01:38:21.169Z,11.65
2016-05-25T01:38:31.169Z,11.69
2016-05-25T01:38:41.185Z,11.72
2016-05-25T01:38:51.169Z,11.67
2016-05-25T01:39:01.188Z,11.76
2016-05-25T01:39:11.188Z,11.76
2016-05-25T01:39:21.032Z,11.72
2016-05-25T01:39:31.032Z,11.72
2016-05-25T01:39:41.204Z,11.73
2016-05-25T01:39:51.204Z,11.72
2016-05-25T01:40:01.223Z,11.73
2016-05-25T01:40:11.223Z,11.65
2016-05-25T01:40:21.223Z,11.7
2016-05-25T01:40:31.223Z,11.78
2016-05-25T01:40:41.223Z,11.75
2016-05-25T01:40:51.239Z,11.7
2016-05-25T01:41:01.085Z,11.73
2016-05-25T01:41:11.257Z,11.72
2016-05-25T01:41:21.257Z,11.7
2016-05-25T01:41:31.257Z,11.69
2016-05-25T01:41:41.257Z,11.72
2016-05-25T01:41:51.272Z,11.69
2016-05-25T01:42:01.275Z,11.69
2016-05-25T01:42:11.275Z,11.69
2016-05-25T01:42:21.291Z,11.7
2016-05-25T01:42:31.291Z,11.7
2016-05-25T01:42:41.291Z,11.67
2016-05-25T01:42:51.291Z,11.65
2016-05-25T01:43:01.308Z,11.61
2016-05-25T01:43:11.308Z,11.64
2016-05-25T01:43:21.152Z,11.64
2016-05-25T01:43:31.324Z,11.61
2016-05-25T01:43:41.324Z,11.72
2016-05-25T01:43:51.324Z,11.67
2016-05-25T01:44:01.327Z,11.61
2016-05-25T01:44:11.343Z,11.69
2016-05-25T01:44:21.186Z,11.54
2016-05-25T01:44:31.343Z,11.6
2016-05-25T01:44:41.343Z,11.61
2016-05-25T01:44:51.202Z,11.62
2016-05-25T01:45:01.205Z,11.6
2016-05-25T01:45:11.361Z,11.58
2016-05-25T01:45:21.361Z,11.67
2016-05-25T01:45:31.377Z,11.61
2016-05-25T01:45:41.377Z,11.58
2016-05-25T01:45:51.377Z,11.61
2016-05-25T01:46:01.395Z,11.62
2016-05-25T01:46:11.254Z,11.58
2016-05-25T01:46:21.410Z,11.64
2016-05-25T01:46:31.410Z,11.62
2016-05-25T01:46:41.426Z,11.65
2016-05-25T01:46:51.441Z,11.62
2016-05-25T01:47:01.429Z,11.7
2016-05-25T01:47:11.273Z,11.69
2016-05-25T01:47:21.429Z,11.69
2016-05-25T01:47:31.429Z,11.7
2016-05-25T01:47:41.444Z,11.73
2016-05-25T01:47:51.460Z,11.6
2016-05-25T01:48:01.447Z,11.65
2016-05-25T01:48:11.463Z,11.69
2016-05-25T01:48:21.463Z,11.69
2016-05-25T01:48:31.463Z,11.65
2016-05-25T01:48:41.463Z,11.67
2016-05-25T01:48:51.463Z,11.65
2016-05-25T01:49:01.482Z,11.67
2016-05-25T01:49:11.482Z,11.7
2016-05-25T01:49:21.482Z,11.65
2016-05-25T01:49:31.513Z,11.61
2016-05-25T01:49:41.497Z,11.58
2016-05-25T01:49:51.497Z,11.62
2016-05-25T01:50:01.499Z,11.69
2016-05-25T01:50:11.515Z,11.6
2016-05-25T01:50:21.515Z,11.67
2016-05-25T01:50:31.515Z,11.69
2016-05-25T01:50:41.546Z,11.58
2016-05-25T01:50:51.531Z,11.6
2016-05-25T01:51:01.533Z,11.61
2016-05-25T01:51:11.548Z,11.61
2016-05-25T01:51:21.548Z,11.6
2016-05-25T01:51:31.548Z,11.58
2016-05-25T01:51:41.564Z,11.61
2016-05-25T01:51:51.564Z,11.62
2016-05-25T01:52:01.568Z,11.61
2016-05-25T01:52:11.568Z,11.61
2016-05-25T01:52:21.583Z,11.65
2016-05-25T01:52:31.427Z,11.65
2016-05-25T01:52:41.599Z,11.65
2016-05-25T01:52:51.583Z,11.61
2016-05-25T01:53:01.601Z,11.69
2016-05-25T01:53:11.601Z,11.62
2016-05-25T01:53:21.601Z,11.65
2016-05-25T01:53:31.617Z,11.51
2016-05-25T01:53:41.617Z,11.61
2016-05-25T01:53:51.617Z,11.54
2016-05-25T01:54:01.620Z,11.69
2016-05-25T01:54:11.635Z,11.54
2016-05-25T01:54:21.635Z,11.64
2016-05-25T01:54:31.635Z,11.51
2016-05-25T01:54:41.495Z,11.6
2016-05-25T01:54:51.651Z,11.64
2016-05-25T01:55:01.669Z,11.64
2016-05-25T01:55:11.669Z,11.57
2016-05-25T01:55:21.669Z,11.61
2016-05-25T01:55:31.512Z,11.65
2016-05-25T01:55:41.669Z,11.62
2016-05-25T01:55:51.684Z,11.65
2016-05-25T01:56:01.531Z,11.69
2016-05-25T01:56:11.687Z,11.65
2016-05-25T01:56:21.703Z,11.65
2016-05-25T01:56:31.703Z,11.67
2016-05-25T01:56:41.703Z,11.6
2016-05-25T01:56:51.703Z,11.61
2016-05-25T01:57:01.721Z,11.64
2016-05-25T01:57:11.721Z,11.61
2016-05-25T01:57:21.565Z,11.67
2016-05-25T01:57:31.737Z,11.62
2016-05-25T01:57:41.737Z,11.67
2016-05-25T01:57:51.753Z,11.6
2016-05-25T01:58:01.739Z,11.52
2016-05-25T01:58:11.755Z,11.72
2016-05-25T01:58:21.598Z,11.6
2016-05-25T01:58:31.755Z,11.72
2016-05-25T01:58:41.770Z,11.61
2016-05-25T01:58:51.786Z,11.65
2016-05-25T01:59:01.789Z,11.61
2016-05-25T01:59:11.773Z,11.67
2016-05-25T01:59:21.789Z,11.57
2016-05-25T01:59:31.633Z,11.69
2016-05-25T01:59:41.789Z,11.75
2016-05-25T01:59:51.805Z,11.7
2016-05-25T02:00:01.808Z,11.72
2016-05-25T02:00:11.808Z,11.62
2016-05-25T02:00:21.667Z,11.65
2016-05-25T02:00:31.823Z,11.69
2016-05-25T02:00:41.823Z,11.7
2016-05-25T02:00:51.823Z,11.7
2016-05-25T02:01:01.842Z,11.65
2016-05-25T02:01:12.201Z,11.72
2016-05-25T02:01:21.920Z,11.67
2016-05-25T02:01:31.857Z,11.57
2016-05-25T02:01:41.701Z,11.65
2016-05-25T02:01:52.045Z,11.67
2016-05-25T02:02:01.860Z,11.72
2016-05-25T02:02:11.720Z,11.67
2016-05-25T02:02:21.876Z,11.7
2016-05-25T02:02:31.876Z,11.72
2016-05-25T02:02:41.892Z,11.72
2016-05-25T02:02:51.892Z,11.72
2016-05-25T02:03:01.909Z,11.72
2016-05-25T02:03:11.753Z,11.75
2016-05-25T02:03:21.925Z,11.7
2016-05-25T02:03:31.909Z,11.67
2016-05-25T02:03:41.909Z,11.67
2016-05-25T02:03:51.925Z,11.73
2016-05-25T02:04:01.928Z,11.7
2016-05-25T02:04:11.928Z,11.72
2016-05-25T02:04:21.928Z,11.75
2016-05-25T02:04:31.944Z,11.67
2016-05-25T02:04:41.944Z,11.69
2016-05-25T02:04:51.944Z,11.72
2016-05-25T02:05:01.961Z,11.72
2016-05-25T02:05:11.961Z,11.72
2016-05-25T02:05:21.961Z,11.69
2016-05-25T02:05:31.977Z,11.76
2016-05-25T02:05:41.821Z,11.65
2016-05-25T02:05:51.977Z,11.65
2016-05-25T02:06:01.980Z,11.7
2016-05-25T02:06:11.995Z,11.69
2016-05-25T02:06:21.995Z,11.69
2016-05-25T02:06:31.995Z,11.65
2016-05-25T02:06:42.011Z,11.7
2016-05-25T02:06:52.011Z,11.7
2016-05-25T02:07:02.014Z,11.7
2016-05-25T02:07:12.014Z,11.67
2016-05-25T02:07:22.030Z,11.67
2016-05-25T02:07:32.030Z,11.72
2016-05-25T02:07:42.030Z,11.72
2016-05-25T02:07:52.030Z,11.67
2016-05-25T02:08:02.047Z,11.72
2016-05-25T02:08:12.047Z,11.67
2016-05-25T02:08:22.047Z,11.67
2016-05-25T02:08:31.907Z,11.64
2016-05-25T02:08:42.063Z,11.67
2016-05-25T02:08:52.063Z,11.72
2016-05-25T02:09:02.082Z,11.65
2016-05-25T02:09:12.082Z,11.62
2016-05-25T02:09:21.925Z,11.65
2016-05-25T02:09:32.082Z,11.58